createdAt,value
2023-02-09T00:00:12.349Z,-1.60
2023-02-09T00:02:44.682Z,-1.77
2023-02-09T00:05:13.809Z,-1.73
2023-02-09T00:07:42.644Z,-1.70
2023-02-09T00:10:11.629Z,-1.84
2023-02-09T00:12:58.380Z,-1.80
2023-02-09T00:15:28.143Z,-1.81
2023-02-09T00:17:57.387Z,-1.79
2023-02-09T00:20:25.808Z,-1.82
2023-02-09T00:22:54.536Z,-1.93
2023-02-09T00:25:24.430Z,-1.97
2023-02-09T00:27:53.303Z,-2.00
2023-02-09T00:30:22.141Z,-2.01
2023-02-09T00:32:52.787Z,-1.98
2023-02-09T00:35:22.065Z,-1.97
2023-02-09T00:37:50.442Z,-1.97
2023-02-09T00:40:21.508Z,-1.84
2023-02-09T00:42:49.881Z,-1.91
2023-02-09T00:45:19.305Z,-1.79
2023-02-09T00:47:47.663Z,-1.78
2023-02-09T00:50:18.537Z,-1.84
2023-02-09T00:52:46.907Z,-1.84
2023-02-09T00:55:17.538Z,-1.81
2023-02-09T00:57:45.948Z,-1.81
2023-02-09T01:00:16.801Z,-1.81
2023-02-09T01:02:46.101Z,-1.81
2023-02-09T01:05:15.366Z,-1.78
2023-02-09T01:07:47.460Z,-1.78
2023-02-09T01:10:16.349Z,-1.75
2023-02-09T01:12:45.512Z,-1.77
2023-02-09T01:15:14.605Z,-1.74
2023-02-09T01:17:45.616Z,-1.77
2023-02-09T01:20:14.647Z,-1.82
2023-02-09T01:22:44.283Z,-1.86
2023-02-09T01:25:13.962Z,-1.84
2023-02-09T01:27:44.124Z,-1.97
2023-02-09T01:30:13.974Z,-1.99
2023-02-09T01:32:42.358Z,-2.07
2023-02-09T01:35:12.301Z,-2.04
2023-02-09T01:37:41.967Z,-2.04
2023-02-09T01:40:12.284Z,-2.02
2023-02-09T01:42:42.493Z,-1.99
2023-02-09T01:45:29.994Z,-2.03
2023-02-09T01:48:02.708Z,-2.14
2023-02-09T01:50:35.480Z,-2.14
2023-02-09T01:53:05.170Z,-2.06
2023-02-09T01:55:38.153Z,-2.07
2023-02-09T01:58:11.392Z,-2.07
2023-02-09T02:00:40.386Z,-2.08
2023-02-09T02:03:12.656Z,-2.10
2023-02-09T02:05:45.737Z,-2.09
2023-02-09T02:08:20.256Z,-2.18
2023-02-09T02:10:49.128Z,-2.20
2023-02-09T02:13:19.373Z,-2.18
2023-02-09T02:16:04.076Z,-2.23
2023-02-09T02:18:50.907Z,-2.28
2023-02-09T02:21:43.915Z,-2.39
2023-02-09T02:24:33.624Z,-2.50
2023-02-09T02:27:05.653Z,-2.62
2023-02-09T02:30:07.274Z,-2.72
2023-02-09T02:32:46.972Z,-2.79
2023-02-09T02:35:21.245Z,-3.01
2023-02-09T02:38:01.203Z,-3.13
2023-02-09T02:40:42.200Z,-3.20
2023-02-09T02:43:23.634Z,-3.48
2023-02-09T02:46:00.018Z,-3.40
2023-02-09T02:48:36.913Z,-3.34
2023-02-09T02:51:10.140Z,-3.34
2023-02-09T02:53:43.973Z,-3.38
2023-02-09T02:56:18.951Z,-3.37
2023-02-09T02:58:50.212Z,-3.62
2023-02-09T03:01:24.859Z,-3.30
2023-02-09T03:03:56.300Z,-3.21
2023-02-09T03:06:25.825Z,-3.15
2023-02-09T03:08:56.623Z,-3.10
2023-02-09T03:11:30.150Z,-3.10
2023-02-09T03:14:18.076Z,-3.04
2023-02-09T03:16:48.723Z,-2.96
2023-02-09T03:19:36.628Z,-2.90
2023-02-09T03:22:10.590Z,-2.89
2023-02-09T03:24:46.885Z,-3.00
2023-02-09T03:27:20.003Z,-2.91
2023-02-09T03:29:52.952Z,-2.93
2023-02-09T03:32:24.588Z,-2.94
2023-02-09T03:34:55.510Z,-3.09
2023-02-09T03:37:24.924Z,-3.06
2023-02-09T03:39:53.358Z,-3.05
2023-02-09T03:42:22.238Z,-3.09
2023-02-09T03:44:52.225Z,-3.02
2023-02-09T03:47:20.608Z,-2.98
2023-02-09T03:49:49.786Z,-3.01
2023-02-09T03:52:19.584Z,-3.07
2023-02-09T03:54:49.282Z,-3.01
2023-02-09T03:57:17.739Z,-3.05
2023-02-09T03:59:46.894Z,-3.03
2023-02-09T04:02:16.049Z,-3.01
2023-02-09T04:04:45.075Z,-3.02
2023-02-09T04:07:13.934Z,-3.02
2023-02-09T04:09:43.706Z,-3.08
2023-02-09T04:12:12.874Z,-3.10
2023-02-09T04:14:41.242Z,-3.20
2023-02-09T04:17:10.338Z,-3.13
2023-02-09T04:19:38.688Z,-3.19
2023-02-09T04:22:08.405Z,-3.33
2023-02-09T04:24:37.261Z,-3.25
2023-02-09T04:27:07.155Z,-3.25
2023-02-09T04:29:36.220Z,-3.26
2023-02-09T04:32:04.913Z,-3.26
2023-02-09T04:34:34.969Z,-3.37
2023-02-09T04:37:03.310Z,-3.37
2023-02-09T04:39:31.692Z,-3.46
2023-02-09T04:42:01.210Z,-3.44
2023-02-09T04:44:31.577Z,-3.46
2023-02-09T04:46:59.987Z,-3.47
2023-02-09T04:49:28.872Z,-3.44
2023-02-09T04:51:57.262Z,-3.38
2023-02-09T04:54:27.248Z,-3.43
2023-02-09T04:57:18.013Z,-3.40
2023-02-09T04:59:47.094Z,-3.39
2023-02-09T05:02:15.497Z,-3.41
2023-02-09T05:04:44.805Z,-3.39
2023-02-09T05:07:13.315Z,-3.39
2023-02-09T05:09:42.347Z,-3.41
2023-02-09T05:12:12.319Z,-3.43
2023-02-09T05:14:41.167Z,-3.48
2023-02-09T05:17:10.868Z,-3.52
2023-02-09T05:19:40.113Z,-3.58
2023-02-09T05:22:08.493Z,-3.56
2023-02-09T05:24:38.371Z,-3.58
2023-02-09T05:27:06.804Z,-3.59
2023-02-09T05:29:36.158Z,-3.64
2023-02-09T05:32:05.740Z,-3.63
2023-02-09T05:34:35.496Z,-3.75
2023-02-09T05:37:04.731Z,-3.50
2023-02-09T05:39:33.748Z,-3.44
2023-02-09T05:42:17.367Z,-3.51
2023-02-09T05:44:47.469Z,-3.54
2023-02-09T05:47:17.510Z,-3.55
2023-02-09T05:49:48.519Z,-3.53
2023-02-09T05:52:17.989Z,-3.61
2023-02-09T05:54:48.472Z,-3.62
2023-02-09T05:57:19.054Z,-3.54
2023-02-09T05:59:47.529Z,-3.58
2023-02-09T06:02:17.512Z,-3.63
2023-02-09T06:04:47.737Z,-3.64
2023-02-09T06:07:16.583Z,-3.67
2023-02-09T06:09:45.012Z,-3.63
2023-02-09T06:12:14.488Z,-3.63
2023-02-09T06:14:43.387Z,-3.57
2023-02-09T06:17:11.779Z,-3.56
2023-02-09T06:19:41.063Z,-3.55
2023-02-09T06:22:10.816Z,-3.62
2023-02-09T06:24:40.754Z,-3.61
2023-02-09T06:27:09.517Z,-3.63
2023-02-09T06:29:37.886Z,-3.70
2023-02-09T06:32:06.759Z,-3.79
2023-02-09T06:34:35.247Z,-3.77
2023-02-09T06:37:03.996Z,-3.83
2023-02-09T06:39:33.775Z,-3.91
2023-02-09T06:42:02.532Z,-3.91
2023-02-09T06:44:30.868Z,-3.88
2023-02-09T06:47:00.044Z,-3.88
2023-02-09T06:49:28.389Z,-3.88
2023-02-09T06:51:57.434Z,-3.88
2023-02-09T06:54:28.818Z,-3.86
2023-02-09T06:56:58.557Z,-3.89
2023-02-09T06:59:27.492Z,-3.89
2023-02-09T07:01:55.908Z,-3.87
2023-02-09T07:04:24.404Z,-3.89
2023-02-09T07:06:53.525Z,-3.83
2023-02-09T07:09:21.890Z,-3.78
2023-02-09T07:11:51.233Z,-3.85
2023-02-09T07:14:21.031Z,-3.73
2023-02-09T07:16:49.522Z,-3.72
2023-02-09T07:19:19.143Z,-3.79
2023-02-09T07:21:48.623Z,-3.80
2023-02-09T07:24:17.039Z,-3.77
2023-02-09T07:26:46.260Z,-3.72
2023-02-09T07:29:15.014Z,-3.70
2023-02-09T07:31:45.369Z,-3.66
2023-02-09T07:34:13.833Z,-3.63
2023-02-09T07:36:43.029Z,-3.65
2023-02-09T07:39:11.917Z,-3.69
2023-02-09T07:41:40.577Z,-3.75
2023-02-09T07:44:10.504Z,-3.68
2023-02-09T07:46:38.992Z,-3.62
2023-02-09T07:49:09.574Z,-3.52
2023-02-09T07:51:38.329Z,-3.50
2023-02-09T07:54:09.604Z,-3.51
2023-02-09T07:56:39.470Z,-3.36
2023-02-09T07:59:08.349Z,-3.29
2023-02-09T08:01:37.245Z,-3.29
2023-02-09T08:04:05.838Z,-3.34
2023-02-09T08:06:42.901Z,-3.38
2023-02-09T08:09:12.938Z,-3.39
2023-02-09T08:11:46.026Z,-3.37
2023-02-09T08:14:18.977Z,-3.38
2023-02-09T08:16:50.506Z,-3.38
2023-02-09T08:19:23.434Z,-3.39
2023-02-09T08:21:53.361Z,-3.33
2023-02-09T08:24:23.344Z,-3.31
2023-02-09T08:26:51.728Z,-3.18
2023-02-09T08:29:21.004Z,-3.07
2023-02-09T08:31:49.961Z,-2.97
2023-02-09T08:34:18.364Z,-2.94
2023-02-09T08:36:48.336Z,-2.71
2023-02-09T08:39:18.059Z,-2.62
2023-02-09T08:41:46.565Z,-2.59
2023-02-09T08:44:14.968Z,-2.46
2023-02-09T08:46:44.443Z,-2.19
2023-02-09T08:49:13.127Z,-2.01
2023-02-09T08:51:43.140Z,-1.76
2023-02-09T08:54:11.506Z,-1.45
2023-02-09T08:56:43.286Z,-1.34
2023-02-09T08:59:12.958Z,-1.20
2023-02-09T09:01:42.396Z,-1.01
2023-02-09T09:04:11.682Z,-0.99
2023-02-09T09:06:40.102Z,-0.91
2023-02-09T09:09:09.401Z,-0.67
2023-02-09T09:11:38.212Z,-0.53
2023-02-09T09:14:08.785Z,-0.23
2023-02-09T09:16:38.031Z,-0.05
2023-02-09T09:19:06.725Z,-0.02
2023-02-09T09:21:36.609Z,0.23
2023-02-09T09:24:06.087Z,0.43
2023-02-09T09:26:35.106Z,0.64
2023-02-09T09:29:04.728Z,0.92
2023-02-09T09:31:34.555Z,1.22
2023-02-09T09:34:03.507Z,1.36
2023-02-09T09:36:33.908Z,1.64
2023-02-09T09:39:02.557Z,1.85
2023-02-09T09:41:34.991Z,1.97
2023-02-09T09:44:04.512Z,2.17
2023-02-09T09:46:38.592Z,2.34
2023-02-09T09:49:07.436Z,2.44
2023-02-09T09:51:42.162Z,2.49
2023-02-09T09:54:17.095Z,2.63
2023-02-09T09:56:46.483Z,2.62
2023-02-09T09:59:18.984Z,2.85
2023-02-09T10:01:51.946Z,2.90
2023-02-09T10:04:21.461Z,3.03
2023-02-09T10:06:59.583Z,3.06
2023-02-09T10:09:37.248Z,3.25
2023-02-09T10:12:19.363Z,3.54
2023-02-09T10:14:47.733Z,3.78
2023-02-09T10:17:18.447Z,3.93
2023-02-09T10:20:01.921Z,4.04
2023-02-09T10:22:31.863Z,4.11
2023-02-09T10:25:00.698Z,4.30
2023-02-09T10:27:33.026Z,4.48
2023-02-09T10:30:18.374Z,4.50
2023-02-09T10:32:49.447Z,4.61
2023-02-09T10:35:26.831Z,5.01
2023-02-09T10:38:02.017Z,5.05
2023-02-09T10:40:32.678Z,5.29
2023-02-09T10:43:03.967Z,5.35
2023-02-09T10:45:40.599Z,5.37
2023-02-09T10:48:19.812Z,5.56
2023-02-09T10:50:54.155Z,5.83
2023-02-09T10:53:27.260Z,5.94
2023-02-09T10:56:02.683Z,6.15
2023-02-09T10:58:33.857Z,6.33
2023-02-09T11:01:19.095Z,6.21
2023-02-09T11:04:01.289Z,6.16
2023-02-09T11:06:37.579Z,6.09
2023-02-09T11:09:13.318Z,6.21
2023-02-09T11:11:44.513Z,6.14
2023-02-09T11:14:15.176Z,6.22
2023-02-09T11:16:55.172Z,6.42
2023-02-09T11:19:48.009Z,6.54
2023-02-09T11:22:28.831Z,6.67
2023-02-09T11:25:12.134Z,7.02
2023-02-09T11:27:56.498Z,7.17
2023-02-09T11:30:43.577Z,7.41
2023-02-09T11:33:21.553Z,7.79
2023-02-09T11:36:08.736Z,8.18
2023-02-09T11:38:43.676Z,8.38
2023-02-09T11:41:36.663Z,7.91
2023-02-09T11:44:11.044Z,8.16
2023-02-09T11:46:40.929Z,8.47
2023-02-09T11:49:18.585Z,8.65
2023-02-09T11:51:51.262Z,8.63
2023-02-09T11:54:24.453Z,8.87
2023-02-09T11:57:00.697Z,8.69
2023-02-09T11:59:34.359Z,8.77
2023-02-09T12:02:11.504Z,8.95
2023-02-09T12:04:45.407Z,9.06
2023-02-09T12:07:22.612Z,9.31
2023-02-09T12:09:56.743Z,9.74
2023-02-09T12:12:33.311Z,10.05
2023-02-09T12:15:12.754Z,10.16
2023-02-09T12:17:47.578Z,10.25
2023-02-09T12:20:27.673Z,10.13
2023-02-09T12:23:07.894Z,10.37
2023-02-09T12:25:52.225Z,10.67
2023-02-09T12:28:43.793Z,10.67
2023-02-09T12:31:22.857Z,10.91
2023-02-09T12:34:28.262Z,10.87
2023-02-09T12:37:20.545Z,11.03
2023-02-09T12:40:18.268Z,11.31
2023-02-09T12:43:04.027Z,11.63
2023-02-09T12:45:36.645Z,11.64
2023-02-09T12:48:14.496Z,10.81
2023-02-09T12:50:50.344Z,10.55
2023-02-09T12:53:47.270Z,10.63
2023-02-09T12:56:30.577Z,10.68
2023-02-09T12:59:23.756Z,10.87
2023-02-09T13:02:16.332Z,10.95
2023-02-09T13:04:58.038Z,11.12
2023-02-09T13:07:39.878Z,11.15
2023-02-09T13:10:17.993Z,10.81
2023-02-09T13:12:54.290Z,11.02
2023-02-09T13:15:22.681Z,11.51
2023-02-09T13:18:06.209Z,11.90
2023-02-09T13:21:11.288Z,11.70
2023-02-09T13:23:51.791Z,11.50
2023-02-09T13:26:23.535Z,11.69
2023-02-09T13:29:19.756Z,12.18
2023-02-09T13:32:00.326Z,12.08
2023-02-09T13:34:37.581Z,11.69
2023-02-09T13:37:19.901Z,11.53
2023-02-09T13:39:57.374Z,11.60
2023-02-09T13:42:27.719Z,11.58
2023-02-09T13:45:01.359Z,11.83
2023-02-09T13:47:30.769Z,11.72
2023-02-09T13:50:01.357Z,12.03
2023-02-09T13:52:36.924Z,11.85
2023-02-09T13:55:13.466Z,12.16
2023-02-09T13:57:46.047Z,12.50
2023-02-09T14:00:24.729Z,12.68
2023-02-09T14:02:56.937Z,12.66
2023-02-09T14:05:39.490Z,12.79
2023-02-09T14:08:09.633Z,12.97
2023-02-09T14:10:38.753Z,12.92
2023-02-09T14:13:16.438Z,12.83
2023-02-09T14:16:06.291Z,13.13
2023-02-09T14:18:48.106Z,12.93
2023-02-09T14:21:22.084Z,12.82
2023-02-09T14:24:05.611Z,12.82
2023-02-09T14:26:38.186Z,12.58
2023-02-09T14:29:18.011Z,12.85
2023-02-09T14:31:51.384Z,13.02
2023-02-09T14:34:35.327Z,12.65
2023-02-09T14:37:25.974Z,12.13
2023-02-09T14:39:55.533Z,12.10
2023-02-09T14:42:25.317Z,11.72
2023-02-09T14:44:55.395Z,11.91
2023-02-09T14:47:32.647Z,12.05
2023-02-09T14:50:01.685Z,12.20
2023-02-09T14:52:33.103Z,12.21
2023-02-09T14:55:06.758Z,12.29
2023-02-09T14:57:37.455Z,12.05
2023-02-09T15:00:18.949Z,11.96
2023-02-09T15:02:49.442Z,11.73
2023-02-09T15:05:20.007Z,11.67
2023-02-09T15:07:52.003Z,11.56
2023-02-09T15:10:27.715Z,11.18
2023-02-09T15:12:57.133Z,10.97
2023-02-09T15:15:28.077Z,10.86
2023-02-09T15:17:59.679Z,10.79
2023-02-09T15:20:31.845Z,10.57
2023-02-09T15:23:01.271Z,10.33
2023-02-09T15:25:30.475Z,10.34
2023-02-09T15:28:01.528Z,10.26
2023-02-09T15:30:33.461Z,10.15
2023-02-09T15:33:04.066Z,9.90
2023-02-09T15:35:33.486Z,9.70
2023-02-09T15:38:02.764Z,9.61
2023-02-09T15:40:52.329Z,9.15
2023-02-09T15:43:40.170Z,9.00
2023-02-09T15:46:27.980Z,8.87
2023-02-09T15:48:58.379Z,8.78
2023-02-09T15:51:32.308Z,8.36
2023-02-09T15:54:03.567Z,8.00
2023-02-09T15:56:33.077Z,8.00
2023-02-09T15:59:03.912Z,7.95
2023-02-09T16:01:34.552Z,7.78
2023-02-09T16:04:14.801Z,7.71
2023-02-09T16:06:47.876Z,7.69
2023-02-09T16:09:20.339Z,7.56
2023-02-09T16:11:49.624Z,7.12
2023-02-09T16:14:20.436Z,7.08
2023-02-09T16:16:51.344Z,6.91
2023-02-09T16:19:21.673Z,6.67
2023-02-09T16:21:55.455Z,6.45
2023-02-09T16:24:32.490Z,6.30
2023-02-09T16:27:02.296Z,6.17
2023-02-09T16:29:30.764Z,6.12
2023-02-09T16:32:00.126Z,6.12
2023-02-09T16:34:29.866Z,6.07
2023-02-09T16:36:59.255Z,5.90
2023-02-09T16:39:27.696Z,5.73
2023-02-09T16:41:57.673Z,5.65
2023-02-09T16:44:29.284Z,5.46
2023-02-09T16:47:01.394Z,5.45
2023-02-09T16:49:37.581Z,5.39
2023-02-09T16:52:14.944Z,5.24
2023-02-09T16:54:45.842Z,5.09
2023-02-09T16:57:16.417Z,5.05
2023-02-09T16:59:45.492Z,4.90
2023-02-09T17:02:30.747Z,4.59
2023-02-09T17:05:03.539Z,4.80
2023-02-09T17:07:48.850Z,4.76
2023-02-09T17:10:26.457Z,4.46
2023-02-09T17:12:54.810Z,4.32
2023-02-09T17:15:31.409Z,4.37
2023-02-09T17:18:03.087Z,4.37
2023-02-09T17:20:37.848Z,4.37
2023-02-09T17:23:08.081Z,4.31
2023-02-09T17:25:36.535Z,4.29
2023-02-09T17:28:06.075Z,4.22
2023-02-09T17:30:35.532Z,4.22
2023-02-09T17:33:07.740Z,4.15
2023-02-09T17:36:17.525Z,4.03
2023-02-09T17:38:33.030Z,3.97
2023-02-09T17:41:03.564Z,3.91
2023-02-09T17:43:33.165Z,3.83
2023-02-09T17:46:02.129Z,3.76
2023-02-09T17:48:30.551Z,3.76
2023-02-09T17:53:50.243Z,3.69
2023-02-09T17:56:19.329Z,3.64
2023-02-09T17:58:49.257Z,3.65
2023-02-09T18:01:26.499Z,3.64
2023-02-09T18:03:56.943Z,3.62
2023-02-09T18:06:34.273Z,3.59
2023-02-09T18:09:07.210Z,3.53
2023-02-09T18:11:59.639Z,3.53
2023-02-09T18:14:29.285Z,3.44
2023-02-09T18:16:58.400Z,3.39
2023-02-09T18:19:27.758Z,3.34
2023-02-09T18:21:59.306Z,3.36
2023-02-09T18:24:30.529Z,3.32
2023-02-09T18:26:59.909Z,3.41
2023-02-09T18:29:30.623Z,3.43
2023-02-09T18:32:00.299Z,3.42
2023-02-09T18:34:29.828Z,3.38
2023-02-09T18:36:59.754Z,3.28
2023-02-09T18:39:28.169Z,3.20
2023-02-09T18:41:57.761Z,3.19
2023-02-09T18:44:29.142Z,3.17
2023-02-09T18:47:00.918Z,3.14
2023-02-09T18:49:29.575Z,3.11
2023-02-09T18:51:59.555Z,3.08
2023-02-09T18:54:29.150Z,3.03
2023-02-09T18:56:57.727Z,2.94
2023-02-09T18:59:29.867Z,3.00
2023-02-09T19:01:58.906Z,2.93
2023-02-09T19:04:27.885Z,2.81
2023-02-09T19:06:56.276Z,2.74
2023-02-09T19:09:26.684Z,2.81
2023-02-09T19:11:55.272Z,2.80
2023-02-09T19:14:39.345Z,2.76
2023-02-09T19:17:09.983Z,2.71
2023-02-09T19:19:38.984Z,2.65
2023-02-09T19:22:07.579Z,2.65
2023-02-09T19:24:38.217Z,2.61
2023-02-09T19:27:09.237Z,2.57
2023-02-09T19:29:41.525Z,2.44
2023-02-09T19:32:10.791Z,2.33
2023-02-09T19:34:41.017Z,2.26
2023-02-09T19:37:11.965Z,2.35
2023-02-09T19:39:41.710Z,2.38
2023-02-09T19:42:11.021Z,2.36
2023-02-09T19:44:39.516Z,2.34
2023-02-09T19:47:08.960Z,2.28
2023-02-09T19:49:38.845Z,2.27
2023-02-09T19:52:08.554Z,2.25
2023-02-09T19:54:36.952Z,2.20
2023-02-09T19:57:06.770Z,2.14
2023-02-09T19:59:38.055Z,2.10
2023-02-09T20:02:06.633Z,2.00
2023-02-09T20:04:36.494Z,2.03
2023-02-09T20:07:05.093Z,1.99
2023-02-09T20:09:33.728Z,1.91
2023-02-09T20:12:02.064Z,1.89
2023-02-09T20:14:33.586Z,1.86
2023-02-09T20:17:02.332Z,1.81
2023-02-09T20:19:31.387Z,1.74
2023-02-09T20:21:59.753Z,1.63
2023-02-09T20:24:28.542Z,1.63
2023-02-09T20:26:57.454Z,1.58
2023-02-09T20:29:25.841Z,1.54
2023-02-09T20:31:56.052Z,1.51
2023-02-09T20:34:24.512Z,1.47
2023-02-09T20:36:54.374Z,1.43
2023-02-09T20:39:23.846Z,1.37
2023-02-09T20:42:14.795Z,1.34
2023-02-09T20:45:01.023Z,1.30
2023-02-09T20:47:30.841Z,1.26
2023-02-09T20:50:00.882Z,1.12
2023-02-09T20:52:29.806Z,1.22
2023-02-09T20:54:58.764Z,1.19
2023-02-09T20:57:30.697Z,1.17
2023-02-09T20:59:59.596Z,1.12
2023-02-09T21:02:30.706Z,1.07
2023-02-09T21:04:59.491Z,1.04
2023-02-09T21:07:28.398Z,1.01
2023-02-09T21:09:56.971Z,0.98
2023-02-09T21:12:26.238Z,0.96
2023-02-09T21:14:56.498Z,0.90
2023-02-09T21:17:25.376Z,0.89
2023-02-09T21:19:55.489Z,0.84
2023-02-09T21:22:23.829Z,0.86
2023-02-09T21:24:52.640Z,0.85
2023-02-09T21:27:21.349Z,0.82
2023-02-09T21:29:50.080Z,0.77
2023-02-09T21:32:19.150Z,0.77
2023-02-09T21:34:47.643Z,0.74
2023-02-09T21:37:18.498Z,0.73
2023-02-09T21:39:46.884Z,0.71
2023-02-09T21:42:28.890Z,0.56
2023-02-09T21:44:57.540Z,0.55
2023-02-09T21:47:28.949Z,0.54
2023-02-09T21:49:57.603Z,0.47
2023-02-09T21:52:29.336Z,0.42
2023-02-09T21:54:57.746Z,0.22
2023-02-09T21:57:28.048Z,0.33
2023-02-09T21:59:56.768Z,0.28
2023-02-09T22:02:27.816Z,0.24
2023-02-09T22:04:56.424Z,0.23
2023-02-09T22:07:25.332Z,0.24
2023-02-09T22:09:56.293Z,0.27
2023-02-09T22:12:24.731Z,0.15
2023-02-09T22:14:53.578Z,0.28
2023-02-09T22:17:21.998Z,0.21
2023-02-09T22:19:52.009Z,0.14
2023-02-09T22:22:20.342Z,0.16
2023-02-09T22:24:49.607Z,0.10
2023-02-09T22:27:20.305Z,0.12
2023-02-09T22:29:48.656Z,0.03
2023-02-09T22:32:17.511Z,-0.05
2023-02-09T22:34:45.886Z,-0.36
2023-02-09T22:37:14.900Z,-0.12
2023-02-09T22:39:44.914Z,-0.17
2023-02-09T22:42:13.799Z,-0.16
2023-02-09T22:44:43.580Z,-0.18
2023-02-09T22:47:13.081Z,-0.14
2023-02-09T22:49:41.660Z,-0.16
2023-02-09T22:52:10.817Z,-0.14
2023-02-09T22:54:39.294Z,-0.14
2023-02-09T22:57:07.707Z,-0.15
2023-02-09T22:59:37.398Z,-0.15
2023-02-09T23:02:07.296Z,-0.13
2023-02-09T23:04:36.201Z,-0.15
2023-02-09T23:07:05.138Z,-0.17
2023-02-09T23:09:34.004Z,-0.18
2023-02-09T23:12:02.891Z,-0.16
2023-02-09T23:14:31.261Z,-0.19
2023-02-09T23:17:00.985Z,-0.26
2023-02-09T23:19:30.940Z,-0.26
2023-02-09T23:21:59.814Z,-0.25
2023-02-09T23:24:28.270Z,-0.27
2023-02-09T23:26:57.795Z,-0.31
2023-02-09T23:29:26.249Z,-0.42
2023-02-09T23:31:55.476Z,-0.40
2023-02-09T23:34:24.290Z,-0.44
2023-02-09T23:36:53.993Z,-0.47
2023-02-09T23:39:25.712Z,-0.45
2023-02-09T23:41:54.190Z,-0.46
2023-02-09T23:44:23.076Z,-0.46
2023-02-09T23:46:51.531Z,-0.54
2023-02-09T23:49:20.282Z,-0.57
2023-02-09T23:51:48.598Z,-0.61
2023-02-09T23:54:19.989Z,-0.62
2023-02-09T23:56:50.547Z,-0.69
2023-02-09T23:59:18.895Z,-0.66
